sensor_id;sensor_type;location;lat;lon;timestamp;temperature;humidity
39751;DHT22;37579;51.074;17.004;2023-01-08T00:01:23;23.10;61.40
39751;DHT22;37579;51.074;17.004;2023-01-08T00:03:49;23.10;61.40
39751;DHT22;37579;51.074;17.004;2023-01-08T00:06:17;23.10;61.50
39751;DHT22;37579;51.074;17.004;2023-01-08T00:08:43;23.00;61.30
39751;DHT22;37579;51.074;17.004;2023-01-08T00:11:10;23.00;61.40
39751;DHT22;37579;51.074;17.004;2023-01-08T00:13:36;23.00;61.40
39751;DHT22;37579;51.074;17.004;2023-01-08T00:16:08;23.00;61.40
39751;DHT22;37579;51.074;17.004;2023-01-08T00:18:34;23.00;61.40
39751;DHT22;37579;51.074;17.004;2023-01-08T00:21:00;23.00;61.40
39751;DHT22;37579;51.074;17.004;2023-01-08T00:23:26;23.00;61.50
39751;DHT22;37579;51.074;17.004;2023-01-08T00:25:52;23.00;62.10
39751;DHT22;37579;51.074;17.004;2023-01-08T00:28:18;23.00;61.40
39751;DHT22;37579;51.074;17.004;2023-01-08T00:30:46;23.00;61.40
39751;DHT22;37579;51.074;17.004;2023-01-08T00:33:12;23.00;61.50
39751;DHT22;37579;51.074;17.004;2023-01-08T00:35:38;23.00;61.40
39751;DHT22;37579;51.074;17.004;2023-01-08T00:38:04;23.00;61.40
39751;DHT22;37579;51.074;17.004;2023-01-08T00:40:32;23.00;61.50
39751;DHT22;37579;51.074;17.004;2023-01-08T00:42:58;23.00;61.50
39751;DHT22;37579;51.074;17.004;2023-01-08T00:45:24;22.90;61.50
39751;DHT22;37579;51.074;17.004;2023-01-08T00:47:50;22.90;61.50
39751;DHT22;37579;51.074;17.004;2023-01-08T00:50:16;23.00;61.50
39751;DHT22;37579;51.074;17.004;2023-01-08T00:52:42;23.00;61.50
39751;DHT22;37579;51.074;17.004;2023-01-08T00:55:08;22.90;61.40
39751;DHT22;37579;51.074;17.004;2023-01-08T00:57:35;22.90;61.50
39751;DHT22;37579;51.074;17.004;2023-01-08T01:00:02;22.90;61.50
39751;DHT22;37579;51.074;17.004;2023-01-08T01:02:28;22.90;61.50
39751;DHT22;37579;51.074;17.004;2023-01-08T01:04:54;22.90;61.50
39751;DHT22;37579;51.074;17.004;2023-01-08T01:07:20;22.90;61.70
39751;DHT22;37579;51.074;17.004;2023-01-08T01:09:45;22.90;61.70
39751;DHT22;37579;51.074;17.004;2023-01-08T01:12:11;22.90;61.60
39751;DHT22;37579;51.074;17.004;2023-01-08T01:14:37;22.90;61.60
39751;DHT22;37579;51.074;17.004;2023-01-08T01:17:03;22.90;61.70
39751;DHT22;37579;51.074;17.004;2023-01-08T01:19:29;22.90;61.70
39751;DHT22;37579;51.074;17.004;2023-01-08T01:21:55;22.90;61.80
39751;DHT22;37579;51.074;17.004;2023-01-08T01:24:21;22.90;61.60
39751;DHT22;37579;51.074;17.004;2023-01-08T01:26:52;22.80;61.60
39751;DHT22;37579;51.074;17.004;2023-01-08T01:29:21;22.80;61.60
39751;DHT22;37579;51.074;17.004;2023-01-08T01:31:47;22.80;61.70
39751;DHT22;37579;51.074;17.004;2023-01-08T01:34:12;22.80;61.70
39751;DHT22;37579;51.074;17.004;2023-01-08T01:36:38;22.80;61.50
39751;DHT22;37579;51.074;17.004;2023-01-08T01:39:06;22.80;61.60
39751;DHT22;37579;51.074;17.004;2023-01-08T01:44:41;22.80;61.50
39751;DHT22;37579;51.074;17.004;2023-01-08T01:47:27;22.80;61.50
39751;DHT22;37579;51.074;17.004;2023-01-08T01:55:34;22.80;61.60
39751;DHT22;37579;51.074;17.004;2023-01-08T02:00:37;22.70;61.50
39751;DHT22;37579;51.074;17.004;2023-01-08T02:03:03;22.70;61.60
39751;DHT22;37579;51.074;17.004;2023-01-08T02:09:01;22.70;61.50
39751;DHT22;37579;51.074;17.004;2023-01-08T02:11:30;22.60;61.50
39751;DHT22;37579;51.074;17.004;2023-01-08T02:14:03;22.60;61.50
39751;DHT22;37579;51.074;17.004;2023-01-08T02:17:14;22.70;61.60
39751;DHT22;37579;51.074;17.004;2023-01-08T02:20:02;22.60;61.40
39751;DHT22;37579;51.074;17.004;2023-01-08T02:22:33;22.70;61.50
39751;DHT22;37579;51.074;17.004;2023-01-08T02:27:50;22.60;61.50
39751;DHT22;37579;51.074;17.004;2023-01-08T02:30:18;22.70;61.40
39751;DHT22;37579;51.074;17.004;2023-01-08T02:32:44;22.60;61.30
39751;DHT22;37579;51.074;17.004;2023-01-08T02:35:10;22.60;61.40
39751;DHT22;37579;51.074;17.004;2023-01-08T02:37:36;22.60;61.40
39751;DHT22;37579;51.074;17.004;2023-01-08T02:48:13;22.60;61.30
39751;DHT22;37579;51.074;17.004;2023-01-08T02:50:55;22.60;61.30
39751;DHT22;37579;51.074;17.004;2023-01-08T02:53:27;22.50;61.20
39751;DHT22;37579;51.074;17.004;2023-01-08T02:55:57;22.50;61.20
39751;DHT22;37579;51.074;17.004;2023-01-08T02:58:26;22.60;61.20
39751;DHT22;37579;51.074;17.004;2023-01-08T03:00:54;22.60;61.20
39751;DHT22;37579;51.074;17.004;2023-01-08T03:03:26;22.50;61.10
39751;DHT22;37579;51.074;17.004;2023-01-08T03:05:57;22.60;61.10
39751;DHT22;37579;51.074;17.004;2023-01-08T03:08:24;22.50;61.20
39751;DHT22;37579;51.074;17.004;2023-01-08T03:10:59;22.50;61.10
39751;DHT22;37579;51.074;17.004;2023-01-08T03:16:00;22.60;61.00
39751;DHT22;37579;51.074;17.004;2023-01-08T03:18:32;22.50;61.00
39751;DHT22;37579;51.074;17.004;2023-01-08T03:21:01;22.60;61.10
39751;DHT22;37579;51.074;17.004;2023-01-08T03:23:28;22.50;61.00
39751;DHT22;37579;51.074;17.004;2023-01-08T03:25:57;22.50;61.00
39751;DHT22;37579;51.074;17.004;2023-01-08T03:28:28;22.50;61.00
39751;DHT22;37579;51.074;17.004;2023-01-08T03:30:56;22.50;61.00
39751;DHT22;37579;51.074;17.004;2023-01-08T03:33:24;22.50;60.90
39751;DHT22;37579;51.074;17.004;2023-01-08T03:35:54;22.50;60.90
39751;DHT22;37579;51.074;17.004;2023-01-08T03:38:26;22.50;60.90
39751;DHT22;37579;51.074;17.004;2023-01-08T03:40:56;22.50;60.90
39751;DHT22;37579;51.074;17.004;2023-01-08T03:43:24;22.50;60.80
39751;DHT22;37579;51.074;17.004;2023-01-08T03:45:54;22.50;60.80
39751;DHT22;37579;51.074;17.004;2023-01-08T03:48:21;22.50;60.80
39751;DHT22;37579;51.074;17.004;2023-01-08T03:50:48;22.50;60.80
39751;DHT22;37579;51.074;17.004;2023-01-08T03:53:14;22.50;60.80
39751;DHT22;37579;51.074;17.004;2023-01-08T03:55:40;22.50;60.80
39751;DHT22;37579;51.074;17.004;2023-01-08T03:58:06;22.50;60.70
39751;DHT22;37579;51.074;17.004;2023-01-08T04:00:32;22.50;61.40
39751;DHT22;37579;51.074;17.004;2023-01-08T04:02:58;22.40;60.50
39751;DHT22;37579;51.074;17.004;2023-01-08T04:05:23;22.50;60.60
39751;DHT22;37579;51.074;17.004;2023-01-08T04:07:49;22.50;60.60
39751;DHT22;37579;51.074;17.004;2023-01-08T04:10:15;22.40;60.60
39751;DHT22;37579;51.074;17.004;2023-01-08T04:12:42;22.40;60.60
39751;DHT22;37579;51.074;17.004;2023-01-08T04:15:08;22.40;60.70
39751;DHT22;37579;51.074;17.004;2023-01-08T04:17:34;22.40;60.60
39751;DHT22;37579;51.074;17.004;2023-01-08T04:20:00;22.40;60.50
39751;DHT22;37579;51.074;17.004;2023-01-08T04:22:26;22.40;60.50
39751;DHT22;37579;51.074;17.004;2023-01-08T04:24:51;22.40;60.50
39751;DHT22;37579;51.074;17.004;2023-01-08T04:27:17;22.40;60.60
39751;DHT22;37579;51.074;17.004;2023-01-08T04:29:43;22.40;60.50
39751;DHT22;37579;51.074;17.004;2023-01-08T04:32:09;22.40;60.30
39751;DHT22;37579;51.074;17.004;2023-01-08T04:34:35;22.50;60.20
39751;DHT22;37579;51.074;17.004;2023-01-08T04:37:01;22.50;60.20
39751;DHT22;37579;51.074;17.004;2023-01-08T04:39:27;22.50;60.20
39751;DHT22;37579;51.074;17.004;2023-01-08T04:41:53;22.40;60.10
39751;DHT22;37579;51.074;17.004;2023-01-08T04:44:19;22.50;60.00
39751;DHT22;37579;51.074;17.004;2023-01-08T04:46:45;22.50;60.00
39751;DHT22;37579;51.074;17.004;2023-01-08T04:49:12;22.50;60.00
39751;DHT22;37579;51.074;17.004;2023-01-08T04:51:37;22.40;59.90
39751;DHT22;37579;51.074;17.004;2023-01-08T04:54:03;22.50;59.90
39751;DHT22;37579;51.074;17.004;2023-01-08T04:56:29;22.50;59.90
39751;DHT22;37579;51.074;17.004;2023-01-08T04:58:56;22.50;59.80
39751;DHT22;37579;51.074;17.004;2023-01-08T05:01:24;22.50;59.70
39751;DHT22;37579;51.074;17.004;2023-01-08T05:04:01;22.50;59.70
39751;DHT22;37579;51.074;17.004;2023-01-08T05:06:28;22.50;59.80
39751;DHT22;37579;51.074;17.004;2023-01-08T05:08:54;22.60;59.70
39751;DHT22;37579;51.074;17.004;2023-01-08T05:11:21;22.60;59.60
39751;DHT22;37579;51.074;17.004;2023-01-08T05:13:48;22.50;59.50
39751;DHT22;37579;51.074;17.004;2023-01-08T05:16:14;22.60;59.60
39751;DHT22;37579;51.074;17.004;2023-01-08T05:18:40;22.60;59.60
39751;DHT22;37579;51.074;17.004;2023-01-08T05:21:06;22.50;59.50
39751;DHT22;37579;51.074;17.004;2023-01-08T05:23:33;22.60;59.40
39751;DHT22;37579;51.074;17.004;2023-01-08T05:26:00;22.60;59.40
39751;DHT22;37579;51.074;17.004;2023-01-08T05:28:26;22.50;59.30
39751;DHT22;37579;51.074;17.004;2023-01-08T05:30:53;22.50;59.30
39751;DHT22;37579;51.074;17.004;2023-01-08T05:33:19;22.60;59.20
39751;DHT22;37579;51.074;17.004;2023-01-08T05:35:45;22.60;59.20
39751;DHT22;37579;51.074;17.004;2023-01-08T05:38:11;22.60;59.20
39751;DHT22;37579;51.074;17.004;2023-01-08T05:40:37;22.60;59.20
39751;DHT22;37579;51.074;17.004;2023-01-08T05:43:03;22.50;59.20
39751;DHT22;37579;51.074;17.004;2023-01-08T05:45:31;22.50;59.10
39751;DHT22;37579;51.074;17.004;2023-01-08T05:47:56;22.60;59.10
39751;DHT22;37579;51.074;17.004;2023-01-08T05:50:22;22.60;59.20
39751;DHT22;37579;51.074;17.004;2023-01-08T05:52:48;22.60;59.20
39751;DHT22;37579;51.074;17.004;2023-01-08T05:55:14;22.60;59.10
39751;DHT22;37579;51.074;17.004;2023-01-08T05:57:40;22.50;59.10
39751;DHT22;37579;51.074;17.004;2023-01-08T06:00:08;22.50;59.10
39751;DHT22;37579;51.074;17.004;2023-01-08T06:02:37;22.60;59.10
39751;DHT22;37579;51.074;17.004;2023-01-08T06:05:03;22.60;59.00
39751;DHT22;37579;51.074;17.004;2023-01-08T06:07:29;22.60;59.00
39751;DHT22;37579;51.074;17.004;2023-01-08T06:09:55;22.60;59.10
39751;DHT22;37579;51.074;17.004;2023-01-08T06:12:21;22.50;59.10
39751;DHT22;37579;51.074;17.004;2023-01-08T06:14:47;22.60;59.10
39751;DHT22;37579;51.074;17.004;2023-01-08T06:17:12;22.50;59.10
39751;DHT22;37579;51.074;17.004;2023-01-08T06:19:39;22.50;59.00
39751;DHT22;37579;51.074;17.004;2023-01-08T06:22:05;22.50;58.90
39751;DHT22;37579;51.074;17.004;2023-01-08T06:24:31;22.50;58.90
39751;DHT22;37579;51.074;17.004;2023-01-08T06:26:57;22.60;58.70
39751;DHT22;37579;51.074;17.004;2023-01-08T06:29:23;22.60;58.70
39751;DHT22;37579;51.074;17.004;2023-01-08T06:31:48;22.70;58.70
39751;DHT22;37579;51.074;17.004;2023-01-08T06:34:14;22.70;58.60
39751;DHT22;37579;51.074;17.004;2023-01-08T06:36:40;22.70;58.50
39751;DHT22;37579;51.074;17.004;2023-01-08T06:39:06;22.70;58.50
39751;DHT22;37579;51.074;17.004;2023-01-08T06:41:32;22.70;58.40
39751;DHT22;37579;51.074;17.004;2023-01-08T06:43:58;22.70;58.30
39751;DHT22;37579;51.074;17.004;2023-01-08T06:46:24;22.70;58.30
39751;DHT22;37579;51.074;17.004;2023-01-08T06:48:50;22.70;58.20
39751;DHT22;37579;51.074;17.004;2023-01-08T06:51:16;22.80;58.20
39751;DHT22;37579;51.074;17.004;2023-01-08T06:53:42;22.80;58.20
39751;DHT22;37579;51.074;17.004;2023-01-08T06:56:08;22.80;58.10
39751;DHT22;37579;51.074;17.004;2023-01-08T06:58:36;22.80;58.10
39751;DHT22;37579;51.074;17.004;2023-01-08T07:01:03;22.80;58.10
39751;DHT22;37579;51.074;17.004;2023-01-08T07:03:28;22.80;58.00
39751;DHT22;37579;51.074;17.004;2023-01-08T07:05:55;22.80;58.00
39751;DHT22;37579;51.074;17.004;2023-01-08T07:08:21;22.80;58.00
39751;DHT22;37579;51.074;17.004;2023-01-08T07:10:47;22.80;57.90
39751;DHT22;37579;51.074;17.004;2023-01-08T07:13:13;22.80;57.90
39751;DHT22;37579;51.074;17.004;2023-01-08T07:15:40;22.80;57.80
39751;DHT22;37579;51.074;17.004;2023-01-08T07:18:10;22.80;57.80
39751;DHT22;37579;51.074;17.004;2023-01-08T07:20:37;22.80;57.80
39751;DHT22;37579;51.074;17.004;2023-01-08T07:23:09;22.80;57.80
39751;DHT22;37579;51.074;17.004;2023-01-08T07:25:35;22.80;57.80
39751;DHT22;37579;51.074;17.004;2023-01-08T07:28:01;22.80;57.70
39751;DHT22;37579;51.074;17.004;2023-01-08T07:30:27;22.80;57.70
39751;DHT22;37579;51.074;17.004;2023-01-08T07:32:56;22.80;57.60
39751;DHT22;37579;51.074;17.004;2023-01-08T07:35:22;22.80;57.70
39751;DHT22;37579;51.074;17.004;2023-01-08T07:37:47;22.80;57.60
39751;DHT22;37579;51.074;17.004;2023-01-08T07:40:13;22.80;57.50
39751;DHT22;37579;51.074;17.004;2023-01-08T07:42:39;22.80;57.50
39751;DHT22;37579;51.074;17.004;2023-01-08T07:45:05;22.90;57.60
39751;DHT22;37579;51.074;17.004;2023-01-08T07:47:32;22.90;57.50
39751;DHT22;37579;51.074;17.004;2023-01-08T07:49:58;22.90;57.50
39751;DHT22;37579;51.074;17.004;2023-01-08T07:52:24;22.80;57.40
39751;DHT22;37579;51.074;17.004;2023-01-08T07:54:50;22.90;57.50
39751;DHT22;37579;51.074;17.004;2023-01-08T07:57:16;22.90;57.40
39751;DHT22;37579;51.074;17.004;2023-01-08T07:59:42;22.90;57.40
39751;DHT22;37579;51.074;17.004;2023-01-08T08:02:10;22.90;57.40
39751;DHT22;37579;51.074;17.004;2023-01-08T08:04:36;22.90;57.40
39751;DHT22;37579;51.074;17.004;2023-01-08T08:07:02;22.90;57.30
39751;DHT22;37579;51.074;17.004;2023-01-08T08:09:28;22.90;57.30
39751;DHT22;37579;51.074;17.004;2023-01-08T08:11:53;22.90;57.30
39751;DHT22;37579;51.074;17.004;2023-01-08T08:14:19;22.90;57.30
39751;DHT22;37579;51.074;17.004;2023-01-08T08:16:45;22.90;57.30
39751;DHT22;37579;51.074;17.004;2023-01-08T08:19:11;22.10;49.10
39751;DHT22;37579;51.074;17.004;2023-01-08T08:21:37;22.40;54.40
39751;DHT22;37579;51.074;17.004;2023-01-08T08:24:03;22.60;54.80
39751;DHT22;37579;51.074;17.004;2023-01-08T08:26:29;22.70;54.90
39751;DHT22;37579;51.074;17.004;2023-01-08T08:28:55;22.80;55.20
39751;DHT22;37579;51.074;17.004;2023-01-08T08:31:21;22.90;55.30
39751;DHT22;37579;51.074;17.004;2023-01-08T08:33:47;22.90;55.40
39751;DHT22;37579;51.074;17.004;2023-01-08T08:36:12;23.00;55.60
39751;DHT22;37579;51.074;17.004;2023-01-08T08:38:38;23.10;56.00
39751;DHT22;37579;51.074;17.004;2023-01-08T08:41:04;23.10;56.30
39751;DHT22;37579;51.074;17.004;2023-01-08T08:43:30;23.20;56.20
39751;DHT22;37579;51.074;17.004;2023-01-08T08:45:56;23.20;56.00
39751;DHT22;37579;51.074;17.004;2023-01-08T08:48:23;23.30;56.10
39751;DHT22;37579;51.074;17.004;2023-01-08T08:50:49;23.30;56.00
39751;DHT22;37579;51.074;17.004;2023-01-08T08:53:14;23.40;55.90
39751;DHT22;37579;51.074;17.004;2023-01-08T08:55:40;23.40;55.90
39751;DHT22;37579;51.074;17.004;2023-01-08T08:58:08;23.40;55.80
39751;DHT22;37579;51.074;17.004;2023-01-08T09:00:39;23.40;55.90
39751;DHT22;37579;51.074;17.004;2023-01-08T09:03:06;23.50;55.80
39751;DHT22;37579;51.074;17.004;2023-01-08T09:05:35;23.50;55.80
39751;DHT22;37579;51.074;17.004;2023-01-08T09:08:01;23.50;55.80
39751;DHT22;37579;51.074;17.004;2023-01-08T09:10:27;23.60;55.80
39751;DHT22;37579;51.074;17.004;2023-01-08T09:12:53;23.60;55.80
39751;DHT22;37579;51.074;17.004;2023-01-08T09:15:20;23.60;55.70
39751;DHT22;37579;51.074;17.004;2023-01-08T09:17:52;23.60;55.70
39751;DHT22;37579;51.074;17.004;2023-01-08T09:20:18;23.60;55.80
39751;DHT22;37579;51.074;17.004;2023-01-08T09:22:44;23.60;55.70
39751;DHT22;37579;51.074;17.004;2023-01-08T09:25:10;23.60;55.80
39751;DHT22;37579;51.074;17.004;2023-01-08T09:27:35;23.60;55.70
39751;DHT22;37579;51.074;17.004;2023-01-08T09:30:02;23.60;55.80
39751;DHT22;37579;51.074;17.004;2023-01-08T09:32:27;23.60;55.80
39751;DHT22;37579;51.074;17.004;2023-01-08T09:34:53;23.60;55.80
39751;DHT22;37579;51.074;17.004;2023-01-08T09:37:19;23.60;56.00
39751;DHT22;37579;51.074;17.004;2023-01-08T09:39:45;23.60;56.10
39751;DHT22;37579;51.074;17.004;2023-01-08T09:42:12;23.60;56.00
39751;DHT22;37579;51.074;17.004;2023-01-08T09:44:41;23.60;56.00
39751;DHT22;37579;51.074;17.004;2023-01-08T09:47:33;23.60;56.00
39751;DHT22;37579;51.074;17.004;2023-01-08T09:50:05;23.50;56.10
39751;DHT22;37579;51.074;17.004;2023-01-08T09:52:32;23.50;56.00
39751;DHT22;37579;51.074;17.004;2023-01-08T09:55:01;23.50;56.30
39751;DHT22;37579;51.074;17.004;2023-01-08T09:57:28;23.60;56.30
39751;DHT22;37579;51.074;17.004;2023-01-08T09:59:54;23.50;56.40
39751;DHT22;37579;51.074;17.004;2023-01-08T10:02:22;23.50;56.50
39751;DHT22;37579;51.074;17.004;2023-01-08T10:04:58;23.60;56.50
39751;DHT22;37579;51.074;17.004;2023-01-08T10:07:26;23.60;56.80
39751;DHT22;37579;51.074;17.004;2023-01-08T10:09:52;23.60;56.90
39751;DHT22;37579;51.074;17.004;2023-01-08T10:12:30;23.60;57.10
39751;DHT22;37579;51.074;17.004;2023-01-08T10:15:05;23.50;57.00
39751;DHT22;37579;51.074;17.004;2023-01-08T10:17:41;23.50;57.10
39751;DHT22;37579;51.074;17.004;2023-01-08T10:20:13;23.50;57.00
39751;DHT22;37579;51.074;17.004;2023-01-08T10:22:39;23.50;56.90
39751;DHT22;37579;51.074;17.004;2023-01-08T10:25:12;23.50;57.10
39751;DHT22;37579;51.074;17.004;2023-01-08T10:30:31;23.50;57.00
39751;DHT22;37579;51.074;17.004;2023-01-08T10:33:04;23.40;57.00
39751;DHT22;37579;51.074;17.004;2023-01-08T10:35:34;23.40;56.90
39751;DHT22;37579;51.074;17.004;2023-01-08T10:38:02;23.40;57.00
39751;DHT22;37579;51.074;17.004;2023-01-08T10:40:40;23.50;57.00
39751;DHT22;37579;51.074;17.004;2023-01-08T10:43:21;23.40;57.40
39751;DHT22;37579;51.074;17.004;2023-01-08T10:46:06;23.50;57.50
39751;DHT22;37579;51.074;17.004;2023-01-08T10:48:45;23.50;57.70
39751;DHT22;37579;51.074;17.004;2023-01-08T10:51:16;23.50;57.50
39751;DHT22;37579;51.074;17.004;2023-01-08T10:53:43;23.50;57.60
39751;DHT22;37579;51.074;17.004;2023-01-08T10:56:22;23.50;57.60
39751;DHT22;37579;51.074;17.004;2023-01-08T10:58:49;23.40;57.50
39751;DHT22;37579;51.074;17.004;2023-01-08T11:01:26;23.50;57.50
39751;DHT22;37579;51.074;17.004;2023-01-08T11:03:59;23.50;57.60
39751;DHT22;37579;51.074;17.004;2023-01-08T11:06:28;23.50;57.40
39751;DHT22;37579;51.074;17.004;2023-01-08T11:09:00;23.50;57.40
39751;DHT22;37579;51.074;17.004;2023-01-08T11:11:37;23.50;57.50
39751;DHT22;37579;51.074;17.004;2023-01-08T11:14:16;23.50;57.30
39751;DHT22;37579;51.074;17.004;2023-01-08T11:16:45;23.60;57.20
39751;DHT22;37579;51.074;17.004;2023-01-08T11:19:18;23.60;57.20
39751;DHT22;37579;51.074;17.004;2023-01-08T11:22:05;23.60;57.00
39751;DHT22;37579;51.074;17.004;2023-01-08T11:24:38;23.60;57.20
39751;DHT22;37579;51.074;17.004;2023-01-08T11:35:32;23.60;57.00
39751;DHT22;37579;51.074;17.004;2023-01-08T11:38:00;23.50;57.00
39751;DHT22;37579;51.074;17.004;2023-01-08T11:43:03;23.50;57.10
39751;DHT22;37579;51.074;17.004;2023-01-08T12:16:35;23.30;57.20
39751;DHT22;37579;51.074;17.004;2023-01-08T12:25:11;23.30;57.30
39751;DHT22;37579;51.074;17.004;2023-01-08T12:33:13;23.30;57.50
39751;DHT22;37579;51.074;17.004;2023-01-08T12:35:48;23.30;57.60
39751;DHT22;37579;51.074;17.004;2023-01-08T12:38:29;23.20;57.60
39751;DHT22;37579;51.074;17.004;2023-01-08T12:43:58;23.20;57.80
39751;DHT22;37579;51.074;17.004;2023-01-08T12:46:28;23.20;57.80
39751;DHT22;37579;51.074;17.004;2023-01-08T12:48:56;23.20;57.80
39751;DHT22;37579;51.074;17.004;2023-01-08T12:59:53;23.10;58.10
39751;DHT22;37579;51.074;17.004;2023-01-08T13:08:07;23.10;58.70
39751;DHT22;37579;51.074;17.004;2023-01-08T13:12:58;23.10;58.70
39751;DHT22;37579;51.074;17.004;2023-01-08T13:15:28;23.10;58.80
39751;DHT22;37579;51.074;17.004;2023-01-08T13:18:16;23.10;58.80
39751;DHT22;37579;51.074;17.004;2023-01-08T13:20:56;23.10;59.00
39751;DHT22;37579;51.074;17.004;2023-01-08T13:23:25;23.10;59.40
39751;DHT22;37579;51.074;17.004;2023-01-08T13:25:53;23.00;59.40
39751;DHT22;37579;51.074;17.004;2023-01-08T13:28:27;23.00;59.20
39751;DHT22;37579;51.074;17.004;2023-01-08T13:30:54;23.00;58.90
39751;DHT22;37579;51.074;17.004;2023-01-08T13:33:26;23.00;58.60
39751;DHT22;37579;51.074;17.004;2023-01-08T13:36:13;23.00;58.30
39751;DHT22;37579;51.074;17.004;2023-01-08T13:38:39;23.10;58.10
39751;DHT22;37579;51.074;17.004;2023-01-08T13:44:03;23.00;57.80
39751;DHT22;37579;51.074;17.004;2023-01-08T13:46:39;23.00;58.50
39751;DHT22;37579;51.074;17.004;2023-01-08T13:49:09;23.00;57.70
39751;DHT22;37579;51.074;17.004;2023-01-08T13:51:43;23.10;57.70
39751;DHT22;37579;51.074;17.004;2023-01-08T13:56:40;23.10;57.70
39751;DHT22;37579;51.074;17.004;2023-01-08T13:59:30;23.10;57.70
39751;DHT22;37579;51.074;17.004;2023-01-08T14:01:58;23.10;57.60
39751;DHT22;37579;51.074;17.004;2023-01-08T14:04:25;23.10;57.60
39751;DHT22;37579;51.074;17.004;2023-01-08T14:06:51;23.10;57.60
39751;DHT22;37579;51.074;17.004;2023-01-08T14:09:24;23.10;57.60
39751;DHT22;37579;51.074;17.004;2023-01-08T14:11:52;23.10;57.60
39751;DHT22;37579;51.074;17.004;2023-01-08T14:14:21;23.00;57.60
39751;DHT22;37579;51.074;17.004;2023-01-08T14:16:49;23.00;57.60
39751;DHT22;37579;51.074;17.004;2023-01-08T14:19:21;23.00;57.60
39751;DHT22;37579;51.074;17.004;2023-01-08T14:21:55;23.10;57.60
39751;DHT22;37579;51.074;17.004;2023-01-08T14:24:23;23.00;58.00
39751;DHT22;37579;51.074;17.004;2023-01-08T14:26:57;23.00;57.60
39751;DHT22;37579;51.074;17.004;2023-01-08T14:29:26;23.00;57.60
39751;DHT22;37579;51.074;17.004;2023-01-08T14:31:57;23.00;57.60
39751;DHT22;37579;51.074;17.004;2023-01-08T14:34:25;23.00;57.50
39751;DHT22;37579;51.074;17.004;2023-01-08T14:36:53;23.00;57.50
39751;DHT22;37579;51.074;17.004;2023-01-08T14:39:34;23.00;57.50
39751;DHT22;37579;51.074;17.004;2023-01-08T14:42:05;23.00;57.50
39751;DHT22;37579;51.074;17.004;2023-01-08T14:45:13;23.00;58.20
39751;DHT22;37579;51.074;17.004;2023-01-08T14:47:43;23.00;57.50
39751;DHT22;37579;51.074;17.004;2023-01-08T14:50:32;23.00;57.50
39751;DHT22;37579;51.074;17.004;2023-01-08T14:53:07;23.00;57.40
39751;DHT22;37579;51.074;17.004;2023-01-08T14:55:43;23.00;57.50
39751;DHT22;37579;51.074;17.004;2023-01-08T14:58:15;23.00;57.50
39751;DHT22;37579;51.074;17.004;2023-01-08T15:00:42;23.00;57.40
39751;DHT22;37579;51.074;17.004;2023-01-08T15:05:55;23.00;57.40
39751;DHT22;37579;51.074;17.004;2023-01-08T15:08:30;23.00;57.40
39751;DHT22;37579;51.074;17.004;2023-01-08T15:10:58;23.00;57.30
39751;DHT22;37579;51.074;17.004;2023-01-08T15:13:29;23.00;57.30
39751;DHT22;37579;51.074;17.004;2023-01-08T15:16:04;23.00;57.30
39751;DHT22;37579;51.074;17.004;2023-01-08T15:18:40;23.00;57.30
39751;DHT22;37579;51.074;17.004;2023-01-08T15:21:07;23.00;57.20
39751;DHT22;37579;51.074;17.004;2023-01-08T15:23:38;23.00;57.20
39751;DHT22;37579;51.074;17.004;2023-01-08T15:26:11;23.00;57.20
39751;DHT22;37579;51.074;17.004;2023-01-08T15:31:43;23.00;57.20
39751;DHT22;37579;51.074;17.004;2023-01-08T15:34:09;23.00;57.20
39751;DHT22;37579;51.074;17.004;2023-01-08T15:36:36;23.00;57.10
39751;DHT22;37579;51.074;17.004;2023-01-08T15:39:03;23.00;57.10
39751;DHT22;37579;51.074;17.004;2023-01-08T15:41:33;23.00;57.10
39751;DHT22;37579;51.074;17.004;2023-01-08T15:44:18;23.00;57.70
39751;DHT22;37579;51.074;17.004;2023-01-08T15:46:44;23.00;57.00
39751;DHT22;37579;51.074;17.004;2023-01-08T15:49:09;23.00;57.00
39751;DHT22;37579;51.074;17.004;2023-01-08T15:51:44;23.00;57.00
39751;DHT22;37579;51.074;17.004;2023-01-08T15:54:11;23.00;56.90
39751;DHT22;37579;51.074;17.004;2023-01-08T15:56:37;23.00;56.90
39751;DHT22;37579;51.074;17.004;2023-01-08T15:59:03;23.00;56.90
39751;DHT22;37579;51.074;17.004;2023-01-08T16:01:29;23.00;56.90
39751;DHT22;37579;51.074;17.004;2023-01-08T16:03:56;23.00;56.90
39751;DHT22;37579;51.074;17.004;2023-01-08T16:06:22;23.00;56.90
39751;DHT22;37579;51.074;17.004;2023-01-08T16:08:48;23.00;56.90
39751;DHT22;37579;51.074;17.004;2023-01-08T16:11:16;23.00;56.90
39751;DHT22;37579;51.074;17.004;2023-01-08T16:13:42;23.00;56.90
39751;DHT22;37579;51.074;17.004;2023-01-08T16:16:09;23.00;56.90
39751;DHT22;37579;51.074;17.004;2023-01-08T16:18:38;23.00;56.90
39751;DHT22;37579;51.074;17.004;2023-01-08T16:21:06;23.00;57.20
39751;DHT22;37579;51.074;17.004;2023-01-08T16:23:33;23.00;56.90
39751;DHT22;37579;51.074;17.004;2023-01-08T16:26:08;23.00;56.90
39751;DHT22;37579;51.074;17.004;2023-01-08T16:28:34;23.00;56.90
39751;DHT22;37579;51.074;17.004;2023-01-08T16:31:00;23.00;56.90
39751;DHT22;37579;51.074;17.004;2023-01-08T16:33:25;23.00;56.90
39751;DHT22;37579;51.074;17.004;2023-01-08T16:35:56;23.00;56.90
39751;DHT22;37579;51.074;17.004;2023-01-08T16:38:22;23.00;56.90
39751;DHT22;37579;51.074;17.004;2023-01-08T16:40:50;23.00;56.90
39751;DHT22;37579;51.074;17.004;2023-01-08T16:43:16;23.00;56.90
39751;DHT22;37579;51.074;17.004;2023-01-08T16:45:45;23.00;56.90
39751;DHT22;37579;51.074;17.004;2023-01-08T16:48:11;23.00;56.80
39751;DHT22;37579;51.074;17.004;2023-01-08T16:50:38;23.00;56.80
39751;DHT22;37579;51.074;17.004;2023-01-08T16:53:04;23.00;56.80
39751;DHT22;37579;51.074;17.004;2023-01-08T16:55:29;23.00;56.80
39751;DHT22;37579;51.074;17.004;2023-01-08T16:57:55;23.00;56.70
39751;DHT22;37579;51.074;17.004;2023-01-08T17:00:21;23.00;56.70
39751;DHT22;37579;51.074;17.004;2023-01-08T17:02:47;23.00;56.70
39751;DHT22;37579;51.074;17.004;2023-01-08T17:05:13;23.00;56.70
39751;DHT22;37579;51.074;17.004;2023-01-08T17:07:38;23.00;56.60
39751;DHT22;37579;51.074;17.004;2023-01-08T17:10:05;22.90;56.60
39751;DHT22;37579;51.074;17.004;2023-01-08T17:12:30;23.00;56.70
39751;DHT22;37579;51.074;17.004;2023-01-08T17:14:56;23.00;56.60
39751;DHT22;37579;51.074;17.004;2023-01-08T17:17:22;23.00;56.60
39751;DHT22;37579;51.074;17.004;2023-01-08T17:19:48;22.90;56.60